sensor_id;sensor_type;location;lat;lon;timestamp;P1;durP1;ratioP1;P2;durP2;ratioP2
6378;SDS011;3222;48.858;10.128;2022-10-17T00:01:10;1.90;;;1.03;;
6378;SDS011;3222;48.858;10.128;2022-10-17T00:03:36;2.07;;;1.03;;
6378;SDS011;3222;48.858;10.128;2022-10-17T00:06:04;1.20;;;1.20;;
6378;SDS011;3222;48.858;10.128;2022-10-17T00:08:39;1.87;;;1.10;;
6378;SDS011;3222;48.858;10.128;2022-10-17T00:11:06;1.13;;;1.13;;
6378;SDS011;3222;48.858;10.128;2022-10-17T00:13:36;2.10;;;1.30;;
6378;SDS011;3222;48.858;10.128;2022-10-17T00:16:02;0.90;;;0.90;;
6378;SDS011;3222;48.858;10.128;2022-10-17T00:18:28;1.90;;;1.30;;
6378;SDS011;3222;48.858;10.128;2022-10-17T00:20:54;1.50;;;1.30;;
6378;SDS011;3222;48.858;10.128;2022-10-17T00:23:20;1.40;;;1.30;;
6378;SDS011;3222;48.858;10.128;2022-10-17T00:25:46;2.60;;;1.30;;
6378;SDS011;3222;48.858;10.128;2022-10-17T00:28:11;1.20;;;1.20;;
6378;SDS011;3222;48.858;10.128;2022-10-17T00:30:39;0.90;;;0.90;;
6378;SDS011;3222;48.858;10.128;2022-10-17T00:33:05;1.13;;;1.00;;
6378;SDS011;3222;48.858;10.128;2022-10-17T00:35:31;1.47;;;1.07;;
6378;SDS011;3222;48.858;10.128;2022-10-17T00:37:57;0.90;;;0.90;;
6378;SDS011;3222;48.858;10.128;2022-10-17T00:40:23;4.53;;;0.90;;
6378;SDS011;3222;48.858;10.128;2022-10-17T00:42:49;0.70;;;0.70;;
6378;SDS011;3222;48.858;10.128;2022-10-17T00:45:27;1.50;;;1.20;;
6378;SDS011;3222;48.858;10.128;2022-10-17T00:48:02;1.30;;;1.20;;
6378;SDS011;3222;48.858;10.128;2022-10-17T00:50:30;1.53;;;1.10;;
6378;SDS011;3222;48.858;10.128;2022-10-17T00:52:57;1.43;;;0.90;;
6378;SDS011;3222;48.858;10.128;2022-10-17T00:55:27;1.90;;;1.10;;
6378;SDS011;3222;48.858;10.128;2022-10-17T00:57:57;1.00;;;1.00;;
6378;SDS011;3222;48.858;10.128;2022-10-17T01:00:26;1.93;;;1.37;;
6378;SDS011;3222;48.858;10.128;2022-10-17T01:02:52;1.20;;;1.10;;
6378;SDS011;3222;48.858;10.128;2022-10-17T01:05:18;1.10;;;1.10;;
6378;SDS011;3222;48.858;10.128;2022-10-17T01:07:44;5.37;;;1.17;;
6378;SDS011;3222;48.858;10.128;2022-10-17T01:10:11;2.33;;;1.00;;
6378;SDS011;3222;48.858;10.128;2022-10-17T01:20:48;1.23;;;1.13;;
6378;SDS011;3222;48.858;10.128;2022-10-17T01:26:32;1.63;;;1.10;;
6378;SDS011;3222;48.858;10.128;2022-10-17T01:32:22;1.17;;;1.10;;
6378;SDS011;3222;48.858;10.128;2022-10-17T01:35:21;1.10;;;1.00;;
6378;SDS011;3222;48.858;10.128;2022-10-17T01:37:46;1.77;;;1.07;;
6378;SDS011;3222;48.858;10.128;2022-10-17T01:46:49;1.00;;;1.00;;
6378;SDS011;3222;48.858;10.128;2022-10-17T01:48:59;2.77;;;1.00;;
6378;SDS011;3222;48.858;10.128;2022-10-17T01:51:33;1.10;;;1.10;;
6378;SDS011;3222;48.858;10.128;2022-10-17T01:54:23;1.10;;;1.10;;
6378;SDS011;3222;48.858;10.128;2022-10-17T01:57:09;3.40;;;0.97;;
6378;SDS011;3222;48.858;10.128;2022-10-17T01:59:43;1.97;;;1.00;;
6378;SDS011;3222;48.858;10.128;2022-10-17T02:02:13;0.90;;;0.90;;
6378;SDS011;3222;48.858;10.128;2022-10-17T02:04:40;0.93;;;0.93;;
6378;SDS011;3222;48.858;10.128;2022-10-17T02:07:07;1.00;;;1.00;;
6378;SDS011;3222;48.858;10.128;2022-10-17T02:09:35;0.90;;;0.90;;
6378;SDS011;3222;48.858;10.128;2022-10-17T02:24:04;0.80;;;0.80;;
6378;SDS011;3222;48.858;10.128;2022-10-17T02:26:46;1.00;;;0.90;;
6378;SDS011;3222;48.858;10.128;2022-10-17T02:29:29;2.20;;;1.00;;
6378;SDS011;3222;48.858;10.128;2022-10-17T02:32:06;2.67;;;0.87;;
6378;SDS011;3222;48.858;10.128;2022-10-17T02:34:40;2.20;;;0.80;;
6378;SDS011;3222;48.858;10.128;2022-10-17T02:37:11;0.80;;;0.80;;
6378;SDS011;3222;48.858;10.128;2022-10-17T02:39:38;1.13;;;1.03;;
6378;SDS011;3222;48.858;10.128;2022-10-17T02:42:06;0.90;;;0.90;;
6378;SDS011;3222;48.858;10.128;2022-10-17T02:44:36;0.87;;;0.87;;
6378;SDS011;3222;48.858;10.128;2022-10-17T02:47:07;1.10;;;1.07;;
6378;SDS011;3222;48.858;10.128;2022-10-17T02:49:37;2.10;;;0.90;;
6378;SDS011;3222;48.858;10.128;2022-10-17T02:52:14;1.63;;;1.13;;
6378;SDS011;3222;48.858;10.128;2022-10-17T02:54:46;2.60;;;0.90;;
6378;SDS011;3222;48.858;10.128;2022-10-17T02:57:36;2.07;;;1.17;;
6378;SDS011;3222;48.858;10.128;2022-10-17T03:00:09;2.13;;;1.10;;
6378;SDS011;3222;48.858;10.128;2022-10-17T03:02:41;0.90;;;0.90;;
6378;SDS011;3222;48.858;10.128;2022-10-17T03:05:09;0.90;;;0.90;;
6378;SDS011;3222;48.858;10.128;2022-10-17T03:07:37;0.93;;;0.93;;
6378;SDS011;3222;48.858;10.128;2022-10-17T03:10:03;0.80;;;0.80;;
6378;SDS011;3222;48.858;10.128;2022-10-17T03:12:29;0.80;;;0.80;;
6378;SDS011;3222;48.858;10.128;2022-10-17T03:14:56;0.90;;;0.90;;
6378;SDS011;3222;48.858;10.128;2022-10-17T03:17:22;0.97;;;0.90;;
6378;SDS011;3222;48.858;10.128;2022-10-17T03:19:47;2.63;;;0.90;;
6378;SDS011;3222;48.858;10.128;2022-10-17T03:22:13;1.13;;;1.13;;
6378;SDS011;3222;48.858;10.128;2022-10-17T03:24:41;2.23;;;1.00;;
6378;SDS011;3222;48.858;10.128;2022-10-17T03:27:06;1.00;;;1.00;;
6378;SDS011;3222;48.858;10.128;2022-10-17T03:29:32;0.90;;;0.90;;
6378;SDS011;3222;48.858;10.128;2022-10-17T03:31:59;1.33;;;0.90;;
6378;SDS011;3222;48.858;10.128;2022-10-17T03:34:24;0.80;;;0.80;;
6378;SDS011;3222;48.858;10.128;2022-10-17T03:36:50;0.97;;;0.80;;
6378;SDS011;3222;48.858;10.128;2022-10-17T03:39:17;1.10;;;1.00;;
6378;SDS011;3222;48.858;10.128;2022-10-17T03:41:42;1.13;;;0.80;;
6378;SDS011;3222;48.858;10.128;2022-10-17T03:44:08;0.90;;;0.90;;
6378;SDS011;3222;48.858;10.128;2022-10-17T03:46:34;0.77;;;0.77;;
6378;SDS011;3222;48.858;10.128;2022-10-17T03:48:59;1.87;;;0.90;;
6378;SDS011;3222;48.858;10.128;2022-10-17T03:51:25;0.90;;;0.90;;
6378;SDS011;3222;48.858;10.128;2022-10-17T03:53:58;0.80;;;0.80;;
6378;SDS011;3222;48.858;10.128;2022-10-17T03:56:24;1.50;;;0.80;;
6378;SDS011;3222;48.858;10.128;2022-10-17T03:58:58;1.13;;;0.70;;
6378;SDS011;3222;48.858;10.128;2022-10-17T04:01:25;1.57;;;0.80;;
6378;SDS011;3222;48.858;10.128;2022-10-17T04:03:51;0.63;;;0.63;;
6378;SDS011;3222;48.858;10.128;2022-10-17T04:06:18;0.80;;;0.80;;
6378;SDS011;3222;48.858;10.128;2022-10-17T04:08:45;0.70;;;0.70;;
6378;SDS011;3222;48.858;10.128;2022-10-17T04:11:17;0.80;;;0.80;;
6378;SDS011;3222;48.858;10.128;2022-10-17T04:13:45;0.70;;;0.70;;
6378;SDS011;3222;48.858;10.128;2022-10-17T04:16:12;0.60;;;0.60;;
6378;SDS011;3222;48.858;10.128;2022-10-17T04:18:52;1.00;;;0.90;;
6378;SDS011;3222;48.858;10.128;2022-10-17T04:21:21;2.20;;;0.67;;
6378;SDS011;3222;48.858;10.128;2022-10-17T04:23:53;0.70;;;0.70;;
6378;SDS011;3222;48.858;10.128;2022-10-17T04:26:31;2.63;;;0.70;;
6378;SDS011;3222;48.858;10.128;2022-10-17T04:28:56;0.80;;;0.80;;
6378;SDS011;3222;48.858;10.128;2022-10-17T04:31:22;1.60;;;0.90;;
6378;SDS011;3222;48.858;10.128;2022-10-17T04:34:02;3.00;;;1.20;;
6378;SDS011;3222;48.858;10.128;2022-10-17T04:36:28;1.07;;;0.80;;
6378;SDS011;3222;48.858;10.128;2022-10-17T04:38:54;1.87;;;0.97;;
6378;SDS011;3222;48.858;10.128;2022-10-17T04:41:19;0.90;;;0.90;;
6378;SDS011;3222;48.858;10.128;2022-10-17T04:43:45;1.03;;;0.70;;
6378;SDS011;3222;48.858;10.128;2022-10-17T04:46:12;0.83;;;0.70;;
6378;SDS011;3222;48.858;10.128;2022-10-17T04:48:39;0.70;;;0.70;;
6378;SDS011;3222;48.858;10.128;2022-10-17T04:51:07;0.80;;;0.80;;
6378;SDS011;3222;48.858;10.128;2022-10-17T04:53:50;0.70;;;0.70;;
6378;SDS011;3222;48.858;10.128;2022-10-17T04:56:17;0.80;;;0.80;;
6378;SDS011;3222;48.858;10.128;2022-10-17T04:58:44;0.90;;;0.90;;
6378;SDS011;3222;48.858;10.128;2022-10-17T05:01:13;1.00;;;1.00;;
6378;SDS011;3222;48.858;10.128;2022-10-17T05:03:47;0.93;;;0.93;;
6378;SDS011;3222;48.858;10.128;2022-10-17T05:06:15;0.80;;;0.80;;
6378;SDS011;3222;48.858;10.128;2022-10-17T05:08:47;2.73;;;0.90;;
6378;SDS011;3222;48.858;10.128;2022-10-17T05:11:20;2.07;;;0.90;;
6378;SDS011;3222;48.858;10.128;2022-10-17T05:13:51;1.90;;;1.77;;
6378;SDS011;3222;48.858;10.128;2022-10-17T05:16:18;3.53;;;3.20;;
6378;SDS011;3222;48.858;10.128;2022-10-17T05:18:46;3.03;;;2.03;;
6378;SDS011;3222;48.858;10.128;2022-10-17T05:21:14;2.20;;;2.10;;
6378;SDS011;3222;48.858;10.128;2022-10-17T05:23:40;2.63;;;2.43;;
6378;SDS011;3222;48.858;10.128;2022-10-17T05:26:06;2.90;;;2.60;;
6378;SDS011;3222;48.858;10.128;2022-10-17T05:28:32;3.47;;;2.83;;
6378;SDS011;3222;48.858;10.128;2022-10-17T05:31:02;4.87;;;2.70;;
6378;SDS011;3222;48.858;10.128;2022-10-17T05:33:29;3.30;;;3.00;;
6378;SDS011;3222;48.858;10.128;2022-10-17T05:35:55;3.30;;;3.00;;
6378;SDS011;3222;48.858;10.128;2022-10-17T05:38:21;2.87;;;2.60;;
6378;SDS011;3222;48.858;10.128;2022-10-17T05:40:48;2.07;;;1.93;;
6378;SDS011;3222;48.858;10.128;2022-10-17T05:43:14;2.77;;;2.23;;
6378;SDS011;3222;48.858;10.128;2022-10-17T05:45:40;2.80;;;2.20;;
6378;SDS011;3222;48.858;10.128;2022-10-17T05:48:10;3.07;;;1.93;;
6378;SDS011;3222;48.858;10.128;2022-10-17T05:50:36;3.20;;;1.83;;
6378;SDS011;3222;48.858;10.128;2022-10-17T05:53:07;2.60;;;1.90;;
6378;SDS011;3222;48.858;10.128;2022-10-17T05:55:38;1.60;;;1.50;;
6378;SDS011;3222;48.858;10.128;2022-10-17T05:58:05;1.90;;;1.40;;
6378;SDS011;3222;48.858;10.128;2022-10-17T06:00:35;1.47;;;1.37;;
6378;SDS011;3222;48.858;10.128;2022-10-17T06:03:01;0.90;;;0.90;;
6378;SDS011;3222;48.858;10.128;2022-10-17T06:05:26;1.17;;;1.10;;
6378;SDS011;3222;48.858;10.128;2022-10-17T06:07:52;1.63;;;1.37;;
6378;SDS011;3222;48.858;10.128;2022-10-17T06:10:20;1.00;;;1.00;;
6378;SDS011;3222;48.858;10.128;2022-10-17T06:12:46;3.13;;;1.10;;
6378;SDS011;3222;48.858;10.128;2022-10-17T06:15:13;1.20;;;1.10;;
6378;SDS011;3222;48.858;10.128;2022-10-17T06:17:42;2.20;;;1.10;;
6378;SDS011;3222;48.858;10.128;2022-10-17T06:20:08;2.37;;;1.00;;
6378;SDS011;3222;48.858;10.128;2022-10-17T06:22:34;2.03;;;1.00;;
6378;SDS011;3222;48.858;10.128;2022-10-17T06:25:03;1.70;;;1.00;;
6378;SDS011;3222;48.858;10.128;2022-10-17T06:27:29;1.80;;;1.00;;
6378;SDS011;3222;48.858;10.128;2022-10-17T06:29:55;3.03;;;1.00;;
6378;SDS011;3222;48.858;10.128;2022-10-17T06:32:21;0.87;;;0.87;;
6378;SDS011;3222;48.858;10.128;2022-10-17T06:34:46;0.73;;;0.73;;
6378;SDS011;3222;48.858;10.128;2022-10-17T06:37:13;2.40;;;0.80;;
6378;SDS011;3222;48.858;10.128;2022-10-17T06:39:40;0.90;;;0.90;;
6378;SDS011;3222;48.858;10.128;2022-10-17T06:42:10;0.80;;;0.80;;
6378;SDS011;3222;48.858;10.128;2022-10-17T06:44:56;0.90;;;0.90;;
6378;SDS011;3222;48.858;10.128;2022-10-17T06:47:37;0.90;;;0.90;;
6378;SDS011;3222;48.858;10.128;2022-10-17T06:50:16;0.83;;;0.83;;
6378;SDS011;3222;48.858;10.128;2022-10-17T06:52:51;0.90;;;0.90;;
6378;SDS011;3222;48.858;10.128;2022-10-17T06:55:52;0.90;;;0.90;;
6378;SDS011;3222;48.858;10.128;2022-10-17T06:58:33;2.43;;;0.90;;
6378;SDS011;3222;48.858;10.128;2022-10-17T07:01:13;1.10;;;1.00;;
6378;SDS011;3222;48.858;10.128;2022-10-17T07:03:39;2.60;;;0.80;;
6378;SDS011;3222;48.858;10.128;2022-10-17T07:06:05;1.53;;;0.80;;
6378;SDS011;3222;48.858;10.128;2022-10-17T07:08:31;0.97;;;0.90;;
6378;SDS011;3222;48.858;10.128;2022-10-17T07:11:07;0.80;;;0.80;;
6378;SDS011;3222;48.858;10.128;2022-10-17T07:13:37;2.03;;;1.00;;
6378;SDS011;3222;48.858;10.128;2022-10-17T07:16:03;2.17;;;0.90;;
6378;SDS011;3222;48.858;10.128;2022-10-17T07:18:30;2.17;;;0.90;;
6378;SDS011;3222;48.858;10.128;2022-10-17T07:20:56;1.40;;;0.90;;
6378;SDS011;3222;48.858;10.128;2022-10-17T07:23:21;2.17;;;1.00;;
6378;SDS011;3222;48.858;10.128;2022-10-17T07:25:48;1.60;;;1.07;;
6378;SDS011;3222;48.858;10.128;2022-10-17T07:28:15;0.93;;;0.90;;
6378;SDS011;3222;48.858;10.128;2022-10-17T07:30:41;1.07;;;0.90;;
6378;SDS011;3222;48.858;10.128;2022-10-17T07:33:10;1.10;;;1.10;;
6378;SDS011;3222;48.858;10.128;2022-10-17T07:35:37;1.20;;;1.20;;
6378;SDS011;3222;48.858;10.128;2022-10-17T07:38:06;1.37;;;1.10;;
6378;SDS011;3222;48.858;10.128;2022-10-17T07:40:33;1.10;;;1.10;;
6378;SDS011;3222;48.858;10.128;2022-10-17T07:42:58;2.03;;;1.60;;
6378;SDS011;3222;48.858;10.128;2022-10-17T07:45:25;3.73;;;1.47;;
6378;SDS011;3222;48.858;10.128;2022-10-17T07:47:56;2.63;;;1.33;;
6378;SDS011;3222;48.858;10.128;2022-10-17T07:50:22;3.33;;;1.47;;
6378;SDS011;3222;48.858;10.128;2022-10-17T07:52:48;2.40;;;1.43;;
6378;SDS011;3222;48.858;10.128;2022-10-17T07:55:14;1.43;;;1.33;;
6378;SDS011;3222;48.858;10.128;2022-10-17T07:57:39;2.30;;;1.47;;
6378;SDS011;3222;48.858;10.128;2022-10-17T08:00:06;1.70;;;1.60;;
6378;SDS011;3222;48.858;10.128;2022-10-17T08:02:37;1.30;;;1.20;;
6378;SDS011;3222;48.858;10.128;2022-10-17T08:05:03;1.70;;;1.40;;
6378;SDS011;3222;48.858;10.128;2022-10-17T08:07:29;1.50;;;1.40;;
6378;SDS011;3222;48.858;10.128;2022-10-17T08:09:55;1.40;;;1.30;;
6378;SDS011;3222;48.858;10.128;2022-10-17T08:12:21;1.50;;;1.40;;
6378;SDS011;3222;48.858;10.128;2022-10-17T08:14:48;1.50;;;1.40;;
6378;SDS011;3222;48.858;10.128;2022-10-17T08:17:13;1.50;;;1.40;;
6378;SDS011;3222;48.858;10.128;2022-10-17T08:19:39;1.70;;;1.60;;
6378;SDS011;3222;48.858;10.128;2022-10-17T08:22:05;1.43;;;1.33;;
6378;SDS011;3222;48.858;10.128;2022-10-17T08:24:31;1.53;;;1.30;;
6378;SDS011;3222;48.858;10.128;2022-10-17T08:26:57;5.97;;;1.30;;
6378;SDS011;3222;48.858;10.128;2022-10-17T08:29:24;4.33;;;1.17;;
6378;SDS011;3222;48.858;10.128;2022-10-17T08:31:50;2.97;;;1.67;;
6378;SDS011;3222;48.858;10.128;2022-10-17T08:34:16;1.20;;;1.20;;
6378;SDS011;3222;48.858;10.128;2022-10-17T08:36:42;1.63;;;1.23;;
6378;SDS011;3222;48.858;10.128;2022-10-17T08:39:08;1.47;;;1.37;;
6378;SDS011;3222;48.858;10.128;2022-10-17T08:41:36;1.40;;;1.30;;
6378;SDS011;3222;48.858;10.128;2022-10-17T08:44:37;1.80;;;1.40;;
6378;SDS011;3222;48.858;10.128;2022-10-17T08:47:04;1.30;;;1.20;;
6378;SDS011;3222;48.858;10.128;2022-10-17T08:49:53;2.40;;;1.37;;
6378;SDS011;3222;48.858;10.128;2022-10-17T08:52:39;1.30;;;1.30;;
6378;SDS011;3222;48.858;10.128;2022-10-17T08:55:43;2.83;;;1.20;;
6378;SDS011;3222;48.858;10.128;2022-10-17T08:58:06;1.40;;;1.30;;
6378;SDS011;3222;48.858;10.128;2022-10-17T09:00:42;1.40;;;1.10;;
6378;SDS011;3222;48.858;10.128;2022-10-17T09:03:21;2.03;;;1.23;;
6378;SDS011;3222;48.858;10.128;2022-10-17T09:06:11;1.73;;;1.50;;
6378;SDS011;3222;48.858;10.128;2022-10-17T09:20:29;1.23;;;1.13;;
6378;SDS011;3222;48.858;10.128;2022-10-17T09:23:03;1.40;;;1.30;;
6378;SDS011;3222;48.858;10.128;2022-10-17T09:25:43;1.60;;;1.50;;
6378;SDS011;3222;48.858;10.128;2022-10-17T09:28:13;1.53;;;1.23;;
6378;SDS011;3222;48.858;10.128;2022-10-17T09:30:46;1.90;;;1.40;;
6378;SDS011;3222;48.858;10.128;2022-10-17T09:33:22;3.13;;;1.37;;
6378;SDS011;3222;48.858;10.128;2022-10-17T09:35:52;2.77;;;1.80;;
6378;SDS011;3222;48.858;10.128;2022-10-17T09:38:22;1.40;;;1.30;;
6378;SDS011;3222;48.858;10.128;2022-10-17T09:40:59;1.30;;;1.20;;
6378;SDS011;3222;48.858;10.128;2022-10-17T09:43:26;1.43;;;1.40;;
6378;SDS011;3222;48.858;10.128;2022-10-17T09:45:58;1.40;;;1.23;;
6378;SDS011;3222;48.858;10.128;2022-10-17T09:48:35;9.23;;;1.33;;
6378;SDS011;3222;48.858;10.128;2022-10-17T09:51:05;3.07;;;1.37;;
6378;SDS011;3222;48.858;10.128;2022-10-17T09:53:34;1.73;;;1.07;;
6378;SDS011;3222;48.858;10.128;2022-10-17T09:56:06;1.15;;;1.13;;
6378;SDS011;3222;48.858;10.128;2022-10-17T09:58:41;5.30;;;1.40;;
6378;SDS011;3222;48.858;10.128;2022-10-17T10:01:28;3.53;;;1.20;;
6378;SDS011;3222;48.858;10.128;2022-10-17T10:04:14;1.00;;;1.00;;
6378;SDS011;3222;48.858;10.128;2022-10-17T10:09:30;3.43;;;1.40;;
6378;SDS011;3222;48.858;10.128;2022-10-17T10:11:58;1.57;;;1.47;;
6378;SDS011;3222;48.858;10.128;2022-10-17T10:16:53;1.60;;;1.50;;
6378;SDS011;3222;48.858;10.128;2022-10-17T10:19:29;2.23;;;1.50;;
6378;SDS011;3222;48.858;10.128;2022-10-17T10:21:58;2.13;;;1.75;;
6378;SDS011;3222;48.858;10.128;2022-10-17T10:24:27;1.63;;;1.53;;
6378;SDS011;3222;48.858;10.128;2022-10-17T10:26:54;1.80;;;1.70;;
6378;SDS011;3222;48.858;10.128;2022-10-17T10:29:29;1.65;;;1.55;;
6378;SDS011;3222;48.858;10.128;2022-10-17T10:32:15;1.93;;;1.40;;
6378;SDS011;3222;48.858;10.128;2022-10-17T10:34:49;1.37;;;1.37;;
6378;SDS011;3222;48.858;10.128;2022-10-17T10:40:05;2.30;;;1.33;;
6378;SDS011;3222;48.858;10.128;2022-10-17T10:42:40;1.20;;;1.20;;
6378;SDS011;3222;48.858;10.128;2022-10-17T10:47:48;1.20;;;1.10;;
6378;SDS011;3222;48.858;10.128;2022-10-17T10:50:23;1.60;;;1.50;;
6378;SDS011;3222;48.858;10.128;2022-10-17T10:55:50;1.55;;;1.40;;
6378;SDS011;3222;48.858;10.128;2022-10-17T11:01:01;1.30;;;1.20;;
6378;SDS011;3222;48.858;10.128;2022-10-17T11:03:53;2.17;;;1.30;;
6378;SDS011;3222;48.858;10.128;2022-10-17T11:06:25;1.85;;;1.30;;
6378;SDS011;3222;48.858;10.128;2022-10-17T11:11:34;2.10;;;1.10;;
6378;SDS011;3222;48.858;10.128;2022-10-17T11:14:15;1.20;;;1.10;;
6378;SDS011;3222;48.858;10.128;2022-10-17T11:16:49;1.25;;;1.23;;
6378;SDS011;3222;48.858;10.128;2022-10-17T11:19:46;3.97;;;1.35;;
6378;SDS011;3222;48.858;10.128;2022-10-17T11:22:27;1.30;;;1.15;;
6378;SDS011;3222;48.858;10.128;2022-10-17T11:27:38;2.78;;;1.40;;
6378;SDS011;3222;48.858;10.128;2022-10-17T11:30:04;1.52;;;1.30;;
6378;SDS011;3222;48.858;10.128;2022-10-17T11:32:36;1.38;;;1.27;;
6378;SDS011;3222;48.858;10.128;2022-10-17T11:35:12;1.63;;;1.17;;
6378;SDS011;3222;48.858;10.128;2022-10-17T11:37:45;2.78;;;1.50;;
6378;SDS011;3222;48.858;10.128;2022-10-17T11:40:30;2.08;;;1.70;;
6378;SDS011;3222;48.858;10.128;2022-10-17T11:43:10;3.47;;;1.77;;
6378;SDS011;3222;48.858;10.128;2022-10-17T11:45:53;1.60;;;1.48;;
6378;SDS011;3222;48.858;10.128;2022-10-17T11:48:27;3.65;;;1.40;;
6378;SDS011;3222;48.858;10.128;2022-10-17T11:53:37;1.83;;;1.38;;
6378;SDS011;3222;48.858;10.128;2022-10-17T11:56:36;2.83;;;1.33;;
6378;SDS011;3222;48.858;10.128;2022-10-17T11:59:19;2.92;;;1.40;;
6378;SDS011;3222;48.858;10.128;2022-10-17T12:02:11;2.05;;;1.30;;
6378;SDS011;3222;48.858;10.128;2022-10-17T12:07:35;1.40;;;1.30;;
6378;SDS011;3222;48.858;10.128;2022-10-17T12:15:56;1.20;;;1.10;;
6378;SDS011;3222;48.858;10.128;2022-10-17T12:18:41;1.27;;;1.17;;
6378;SDS011;3222;48.858;10.128;2022-10-17T12:21:06;1.33;;;1.23;;
6378;SDS011;3222;48.858;10.128;2022-10-17T12:23:32;1.92;;;1.38;;
6378;SDS011;3222;48.858;10.128;2022-10-17T12:26:04;1.80;;;1.67;;
6378;SDS011;3222;48.858;10.128;2022-10-17T12:28:32;2.22;;;1.60;;
6378;SDS011;3222;48.858;10.128;2022-10-17T12:33:37;1.80;;;1.35;;
6378;SDS011;3222;48.858;10.128;2022-10-17T12:38:51;3.00;;;1.83;;
6378;SDS011;3222;48.858;10.128;2022-10-17T12:52:18;4.20;;;1.25;;
6378;SDS011;3222;48.858;10.128;2022-10-17T12:54:49;1.20;;;1.10;;
6378;SDS011;3222;48.858;10.128;2022-10-17T13:00:31;3.70;;;1.10;;
6378;SDS011;3222;48.858;10.128;2022-10-17T13:03:02;1.10;;;1.02;;
6378;SDS011;3222;48.858;10.128;2022-10-17T13:05:37;1.48;;;1.30;;
6378;SDS011;3222;48.858;10.128;2022-10-17T13:08:11;2.58;;;1.10;;
6378;SDS011;3222;48.858;10.128;2022-10-17T13:10:43;2.90;;;1.15;;
6378;SDS011;3222;48.858;10.128;2022-10-17T13:13:56;3.00;;;1.30;;
6378;SDS011;3222;48.858;10.128;2022-10-17T13:16:30;1.55;;;1.10;;
6378;SDS011;3222;48.858;10.128;2022-10-17T13:19:12;3.03;;;1.20;;
6378;SDS011;3222;48.858;10.128;2022-10-17T13:21:48;3.22;;;1.60;;
6378;SDS011;3222;48.858;10.128;2022-10-17T13:24:19;4.38;;;2.05;;
6378;SDS011;3222;48.858;10.128;2022-10-17T13:26:56;3.47;;;2.10;;
6378;SDS011;3222;48.858;10.128;2022-10-17T13:29:22;5.30;;;2.65;;
6378;SDS011;3222;48.858;10.128;2022-10-17T13:31:59;4.35;;;2.10;;
6378;SDS011;3222;48.858;10.128;2022-10-17T13:34:28;3.53;;;1.90;;
6378;SDS011;3222;48.858;10.128;2022-10-17T13:36:59;2.20;;;1.92;;
6378;SDS011;3222;48.858;10.128;2022-10-17T13:39:32;2.33;;;1.50;;
6378;SDS011;3222;48.858;10.128;2022-10-17T13:42:00;2.17;;;1.75;;
6378;SDS011;3222;48.858;10.128;2022-10-17T13:44:27;1.60;;;1.50;;
6378;SDS011;3222;48.858;10.128;2022-10-17T13:46:56;3.92;;;1.77;;
6378;SDS011;3222;48.858;10.128;2022-10-17T13:49:31;3.67;;;1.63;;
6378;SDS011;3222;48.858;10.128;2022-10-17T13:51:59;4.00;;;1.10;;
6378;SDS011;3222;48.858;10.128;2022-10-17T13:54:35;2.58;;;1.65;;
6378;SDS011;3222;48.858;10.128;2022-10-17T13:57:27;2.30;;;1.00;;
6378;SDS011;3222;48.858;10.128;2022-10-17T13:59:56;1.15;;;0.90;;
6378;SDS011;3222;48.858;10.128;2022-10-17T14:02:24;1.00;;;1.00;;
6378;SDS011;3222;48.858;10.128;2022-10-17T14:04:58;4.80;;;1.00;;
6378;SDS011;3222;48.858;10.128;2022-10-17T14:07:36;2.03;;;1.35;;
6378;SDS011;3222;48.858;10.128;2022-10-17T14:12:55;2.30;;;0.90;;
6378;SDS011;3222;48.858;10.128;2022-10-17T14:15:25;1.35;;;1.00;;
6378;SDS011;3222;48.858;10.128;2022-10-17T14:17:57;1.63;;;1.10;;
6378;SDS011;3222;48.858;10.128;2022-10-17T14:20:25;2.72;;;1.10;;
6378;SDS011;3222;48.858;10.128;2022-10-17T14:22:53;1.55;;;1.20;;
6378;SDS011;3222;48.858;10.128;2022-10-17T14:30:47;2.92;;;1.20;;
6378;SDS011;3222;48.858;10.128;2022-10-17T14:33:19;1.00;;;1.00;;
6378;SDS011;3222;48.858;10.128;2022-10-17T14:35:57;2.22;;;1.25;;
6378;SDS011;3222;48.858;10.128;2022-10-17T14:38:25;7.00;;;2.20;;
6378;SDS011;3222;48.858;10.128;2022-10-17T14:43:27;2.72;;;1.65;;
6378;SDS011;3222;48.858;10.128;2022-10-17T14:45:57;2.38;;;1.67;;
6378;SDS011;3222;48.858;10.128;2022-10-17T14:48:25;1.50;;;1.40;;
6378;SDS011;3222;48.858;10.128;2022-10-17T14:51:05;2.25;;;1.83;;
6378;SDS011;3222;48.858;10.128;2022-10-17T14:53:42;4.10;;;1.70;;
6378;SDS011;3222;48.858;10.128;2022-10-17T14:56:24;3.63;;;1.77;;
6378;SDS011;3222;48.858;10.128;2022-10-17T14:58:59;2.33;;;1.40;;
6378;SDS011;3222;48.858;10.128;2022-10-17T15:01:26;7.25;;;1.50;;
6378;SDS011;3222;48.858;10.128;2022-10-17T15:03:52;2.80;;;1.60;;
6378;SDS011;3222;48.858;10.128;2022-10-17T15:06:19;1.65;;;1.35;;
6378;SDS011;3222;48.858;10.128;2022-10-17T15:08:47;3.70;;;1.40;;
6378;SDS011;3222;48.858;10.128;2022-10-17T15:11:13;3.30;;;1.30;;
6378;SDS011;3222;48.858;10.128;2022-10-17T15:13:38;2.45;;;1.20;;
6378;SDS011;3222;48.858;10.128;2022-10-17T15:16:21;3.78;;;1.27;;
6378;SDS011;3222;48.858;10.128;2022-10-17T15:18:48;6.30;;;2.33;;
6378;SDS011;3222;48.858;10.128;2022-10-17T15:21:17;2.63;;;1.73;;
6378;SDS011;3222;48.858;10.128;2022-10-17T15:23:47;2.78;;;1.40;;
6378;SDS011;3222;48.858;10.128;2022-10-17T15:26:14;1.27;;;1.15;;
6378;SDS011;3222;48.858;10.128;2022-10-17T15:28:44;3.00;;;2.05;;
6378;SDS011;3222;48.858;10.128;2022-10-17T15:31:12;3.70;;;1.40;;
6378;SDS011;3222;48.858;10.128;2022-10-17T15:33:39;3.53;;;2.60;;
6378;SDS011;3222;48.858;10.128;2022-10-17T15:38:49;6.72;;;3.30;;
6378;SDS011;3222;48.858;10.128;2022-10-17T15:41:17;4.95;;;2.95;;
6378;SDS011;3222;48.858;10.128;2022-10-17T15:43:43;4.75;;;2.30;;
6378;SDS011;3222;48.858;10.128;2022-10-17T15:46:12;3.17;;;1.92;;
6378;SDS011;3222;48.858;10.128;2022-10-17T15:48:41;5.57;;;2.15;;
6378;SDS011;3222;48.858;10.128;2022-10-17T15:51:07;3.63;;;1.73;;
6378;SDS011;3222;48.858;10.128;2022-10-17T15:53:33;4.45;;;1.20;;
6378;SDS011;3222;48.858;10.128;2022-10-17T15:55:59;3.20;;;1.27;;
6378;SDS011;3222;48.858;10.128;2022-10-17T15:58:26;1.85;;;1.35;;
6378;SDS011;3222;48.858;10.128;2022-10-17T16:00:59;6.13;;;1.13;;
6378;SDS011;3222;48.858;10.128;2022-10-17T16:03:24;4.32;;;1.40;;
6378;SDS011;3222;48.858;10.128;2022-10-17T16:05:52;1.35;;;1.25;;
6378;SDS011;3222;48.858;10.128;2022-10-17T16:08:17;2.42;;;1.38;;
6378;SDS011;3222;48.858;10.128;2022-10-17T16:10:43;4.93;;;1.35;;
6378;SDS011;3222;48.858;10.128;2022-10-17T16:13:15;6.97;;;2.10;;
6378;SDS011;3222;48.858;10.128;2022-10-17T16:15:43;3.88;;;1.30;;
6378;SDS011;3222;48.858;10.128;2022-10-17T16:18:08;2.33;;;1.33;;
6378;SDS011;3222;48.858;10.128;2022-10-17T16:20:34;7.63;;;1.63;;
6378;SDS011;3222;48.858;10.128;2022-10-17T16:23:00;4.85;;;1.30;;
6378;SDS011;3222;48.858;10.128;2022-10-17T16:25:28;2.38;;;1.38;;
6378;SDS011;3222;48.858;10.128;2022-10-17T16:27:55;3.28;;;1.10;;
6378;SDS011;3222;48.858;10.128;2022-10-17T16:30:23;1.80;;;1.10;;
6378;SDS011;3222;48.858;10.128;2022-10-17T16:32:50;6.00;;;1.55;;
6378;SDS011;3222;48.858;10.128;2022-10-17T16:35:24;1.52;;;1.10;;
6378;SDS011;3222;48.858;10.128;2022-10-17T16:37:52;1.75;;;1.30;;
6378;SDS011;3222;48.858;10.128;2022-10-17T16:40:18;4.85;;;1.23;;
6378;SDS011;3222;48.858;10.128;2022-10-17T16:42:44;2.17;;;1.20;;
6378;SDS011;3222;48.858;10.128;2022-10-17T16:45:14;3.72;;;1.33;;
6378;SDS011;3222;48.858;10.128;2022-10-17T16:47:42;2.97;;;1.50;;
6378;SDS011;3222;48.858;10.128;2022-10-17T16:50:08;1.75;;;1.23;;
6378;SDS011;3222;48.858;10.128;2022-10-17T16:52:34;1.38;;;1.13;;
6378;SDS011;3222;48.858;10.128;2022-10-17T16:55:00;1.95;;;1.63;;
6378;SDS011;3222;48.858;10.128;2022-10-17T16:57:26;2.80;;;1.63;;
6378;SDS011;3222;48.858;10.128;2022-10-17T16:59:51;7.38;;;1.35;;
6378;SDS011;3222;48.858;10.128;2022-10-17T17:02:17;1.85;;;1.20;;
6378;SDS011;3222;48.858;10.128;2022-10-17T17:04:43;2.60;;;1.35;;
6378;SDS011;3222;48.858;10.128;2022-10-17T17:07:08;3.85;;;1.27;;
6378;SDS011;3222;48.858;10.128;2022-10-17T17:09:34;5.93;;;1.75;;
6378;SDS011;3222;48.858;10.128;2022-10-17T17:12:00;2.50;;;1.48;;